createdAt,value
2016-09-11T04:00:32.474Z,25
2016-09-11T04:00:58.106Z,24.98
2016-09-11T04:01:23.704Z,25.02
2016-09-11T04:01:49.330Z,25.02
2016-09-11T04:02:14.872Z,25.01
2016-09-11T04:02:40.527Z,25
2016-09-11T04:03:06.245Z,25.02
2016-09-11T04:03:31.818Z,25.01
2016-09-11T04:03:57.473Z,24.98
2016-09-11T04:04:23.122Z,25
2016-09-11T04:04:48.669Z,25.01
2016-09-11T04:05:14.338Z,25
2016-09-11T04:05:39.910Z,25.1
2016-09-11T04:06:05.590Z,25.07
2016-09-11T04:06:31.222Z,24.97
2016-09-11T04:06:56.767Z,24.97
2016-09-11T04:07:22.419Z,25.02
2016-09-11T04:07:48.064Z,25
2016-09-11T04:08:13.635Z,24.98
2016-09-11T04:08:39.269Z,24.97
2016-09-11T04:09:04.839Z,24.97
2016-09-11T04:09:30.387Z,24.97
2016-09-11T04:09:56.021Z,24.98
2016-09-11T04:10:21.833Z,25.13
2016-09-11T04:10:47.384Z,25.07
2016-09-11T04:11:13.065Z,24.98
2016-09-11T04:11:38.646Z,25.01
2016-09-11T04:12:04.397Z,25.01
2016-09-11T04:12:29.881Z,24.98
2016-09-11T04:12:55.427Z,24.98
2016-09-11T04:13:21.069Z,25.05
2016-09-11T04:13:46.676Z,24.94
2016-09-11T04:14:12.239Z,24.98
2016-09-11T04:14:37.779Z,25
2016-09-11T04:15:03.365Z,25.02
2016-09-11T04:15:28.919Z,24.98
2016-09-11T04:15:54.496Z,25
2016-09-11T04:16:20.067Z,24.97
2016-09-11T04:16:45.661Z,24.97
2016-09-11T04:17:11.281Z,25.01
2016-09-11T04:17:36.876Z,25.01
2016-09-11T04:18:02.518Z,25
2016-09-11T04:18:28.095Z,24.95
2016-09-11T04:18:53.654Z,25.07
2016-09-11T04:19:19.208Z,25.01
2016-09-11T04:19:44.776Z,24.98
2016-09-11T04:20:10.961Z,24.97
2016-09-11T04:20:36.526Z,25
2016-09-11T04:21:02.062Z,24.98
2016-09-11T04:21:27.697Z,24.98
2016-09-11T04:21:53.358Z,24.98
2016-09-11T04:22:18.979Z,25.01
2016-09-11T04:22:44.529Z,24.97
2016-09-11T04:23:10.094Z,24.97
2016-09-11T04:23:35.686Z,25.05
2016-09-11T04:24:01.237Z,24.95
2016-09-11T04:24:26.834Z,25.01
2016-09-11T04:24:52.528Z,25.01
2016-09-11T04:25:28.482Z,25.06
2016-09-11T04:25:54.055Z,25.07
2016-09-11T04:26:20.403Z,25.05
2016-09-11T04:26:46.026Z,25.02
2016-09-11T04:27:11.908Z,25.01
2016-09-11T04:27:37.467Z,25.12
2016-09-11T04:28:03.029Z,25.07
2016-09-11T04:28:28.615Z,25.09
2016-09-11T04:28:54.189Z,25.09
2016-09-11T04:29:19.766Z,25.1
2016-09-11T04:29:45.336Z,25.13
2016-09-11T04:30:10.904Z,25.13
2016-09-11T04:30:36.552Z,25.12
2016-09-11T04:31:02.146Z,25.19
2016-09-11T04:31:27.721Z,25.15
2016-09-11T04:31:53.297Z,25
2016-09-11T04:32:18.864Z,25.05
2016-09-11T04:32:44.419Z,25.02
2016-09-11T04:33:09.979Z,24.91
2016-09-11T04:33:35.546Z,24.88
2016-09-11T04:34:12.621Z,24.88
2016-09-11T04:34:38.188Z,24.91
2016-09-11T04:35:03.746Z,24.83
2016-09-11T04:35:29.354Z,24.73
2016-09-11T04:35:54.952Z,24.76
2016-09-11T04:36:20.718Z,24.73
2016-09-11T04:36:46.283Z,24.71
2016-09-11T04:37:12.629Z,24.69
2016-09-11T04:37:38.181Z,24.61
2016-09-11T04:38:03.769Z,24.67
2016-09-11T04:38:29.896Z,24.61
2016-09-11T04:38:55.518Z,24.54
2016-09-11T04:39:21.701Z,24.59
2016-09-11T04:39:47.354Z,24.54
2016-09-11T04:40:13.490Z,24.5
2016-09-11T04:40:39.069Z,24.59
2016-09-11T04:41:04.678Z,24.56
2016-09-11T04:41:30.799Z,24.56
2016-09-11T04:41:56.368Z,24.54
2016-09-11T04:42:22.636Z,24.56
2016-09-11T04:42:48.267Z,24.54
2016-09-11T04:43:13.926Z,24.63
2016-09-11T04:43:40.006Z,24.57
2016-09-11T04:44:05.560Z,24.47
2016-09-11T04:44:31.904Z,24.5
2016-09-11T04:44:57.465Z,24.52
2016-09-11T04:45:23.594Z,24.53
2016-09-11T04:45:49.164Z,24.5
2016-09-11T04:46:14.779Z,24.42
2016-09-11T04:46:40.923Z,24.49
2016-09-11T04:47:06.487Z,24.49
2016-09-11T04:47:32.728Z,24.53
2016-09-11T04:47:58.282Z,24.54
2016-09-11T04:48:23.865Z,24.41
2016-09-11T04:48:50.202Z,24.39
2016-09-11T04:49:15.746Z,24.52
2016-09-11T04:49:41.866Z,24.45
2016-09-11T04:50:07.468Z,24.49
2016-09-11T04:50:33.686Z,24.47
2016-09-11T04:50:59.261Z,24.47
2016-09-11T04:51:24.865Z,24.47
2016-09-11T04:51:51.144Z,24.39
2016-09-11T04:52:16.762Z,24.49
2016-09-11T04:52:43.379Z,24.41
2016-09-11T04:53:09.005Z,24.47
2016-09-11T04:53:34.565Z,24.42
2016-09-11T04:54:00.179Z,24.44
2016-09-11T04:54:25.733Z,24.5
2016-09-11T04:54:51.949Z,24.45
2016-09-11T04:55:17.566Z,24.5
2016-09-11T04:55:43.758Z,24.49
2016-09-11T04:56:09.323Z,24.5
2016-09-11T04:56:34.876Z,24.47
2016-09-11T04:57:01.089Z,24.47
2016-09-11T04:57:26.682Z,24.53
2016-09-11T04:57:52.988Z,24.45
2016-09-11T04:58:18.567Z,24.47
2016-09-11T04:58:44.123Z,24.39
2016-09-11T04:59:10.263Z,24.47
2016-09-11T04:59:35.819Z,24.41
2016-09-11T05:00:02.037Z,24.5
2016-09-11T05:00:27.592Z,24.44
2016-09-11T05:00:53.868Z,24.35
2016-09-11T05:01:19.434Z,24.44
2016-09-11T05:01:44.991Z,24.45
2016-09-11T05:02:11.175Z,24.49
2016-09-11T05:02:36.738Z,24.49
2016-09-11T05:03:03.000Z,24.44
2016-09-11T05:03:28.577Z,24.39
2016-09-11T05:03:54.139Z,24.41
2016-09-11T05:04:20.365Z,24.5
2016-09-11T05:04:45.936Z,24.41
2016-09-11T05:05:12.188Z,24.39
2016-09-11T05:05:37.761Z,24.35
2016-09-11T05:06:03.940Z,24.38
2016-09-11T05:06:29.523Z,24.37
2016-09-11T05:06:55.086Z,24.35
2016-09-11T05:07:21.276Z,24.32
2016-09-11T05:07:46.836Z,24.45
2016-09-11T05:08:13.080Z,24.29
2016-09-11T05:08:38.757Z,24.38
2016-09-11T05:09:04.424Z,24.35
2016-09-11T05:09:30.675Z,24.41
2016-09-11T05:09:56.369Z,24.32
2016-09-11T05:10:22.226Z,24.45
2016-09-11T05:10:47.838Z,24.38
2016-09-11T05:11:14.037Z,24.37
2016-09-11T05:11:40.257Z,24.5
2016-09-11T05:12:05.838Z,24.38
2016-09-11T05:12:31.398Z,24.37
2016-09-11T05:12:56.989Z,24.45
2016-09-11T05:13:23.188Z,24.47
2016-09-11T05:13:48.765Z,24.49
2016-09-11T05:14:14.337Z,24.38
2016-09-11T05:14:40.608Z,24.45
2016-09-11T05:15:06.177Z,24.45
2016-09-11T05:15:32.320Z,24.35
2016-09-11T05:15:57.905Z,24.32
2016-09-11T05:16:24.139Z,24.42
2016-09-11T05:16:49.693Z,24.29
2016-09-11T05:17:15.253Z,24.31
2016-09-11T05:17:41.467Z,24.32
2016-09-11T05:18:07.021Z,24.35
2016-09-11T05:18:33.306Z,24.34
2016-09-11T05:18:58.867Z,24.34
2016-09-11T05:19:24.433Z,24.35
2016-09-11T05:19:50.659Z,24.39
2016-09-11T05:20:16.236Z,24.41
2016-09-11T05:20:42.436Z,24.34
2016-09-11T05:21:08.037Z,24.31
2016-09-11T05:21:34.256Z,24.41
2016-09-11T05:21:59.816Z,24.45
2016-09-11T05:22:25.366Z,24.35
2016-09-11T05:22:51.554Z,24.37
2016-09-11T05:23:17.165Z,24.45
2016-09-11T05:23:43.379Z,24.42
2016-09-11T05:24:08.959Z,24.35
2016-09-11T05:24:34.575Z,24.38
2016-09-11T05:25:00.898Z,24.39
2016-09-11T05:25:26.467Z,24.49
2016-09-11T05:25:52.505Z,24.45
2016-09-11T05:26:18.087Z,24.47
2016-09-11T05:26:44.384Z,24.39
2016-09-11T05:27:09.983Z,24.49
2016-09-11T05:27:35.543Z,24.35
2016-09-11T05:28:01.647Z,24.32
2016-09-11T05:28:27.216Z,24.44
2016-09-11T05:28:53.469Z,24.31
2016-09-11T05:29:19.037Z,24.32
2016-09-11T05:29:44.578Z,24.34
2016-09-11T05:30:10.836Z,24.37
2016-09-11T05:30:36.434Z,24.37
2016-09-11T05:31:02.654Z,24.35
2016-09-11T05:31:28.218Z,24.37
2016-09-11T05:31:54.409Z,24.31
2016-09-11T05:32:19.966Z,24.38
2016-09-11T05:32:45.608Z,24.39
2016-09-11T05:33:11.754Z,24.49
2016-09-11T05:33:37.322Z,24.34
2016-09-11T05:34:03.548Z,24.34
2016-09-11T05:34:29.126Z,24.37
2016-09-11T05:34:54.676Z,24.39
2016-09-11T05:35:21.005Z,24.44
2016-09-11T05:35:46.788Z,24.47
2016-09-11T05:36:12.725Z,24.45
2016-09-11T05:36:38.318Z,24.53
2016-09-11T05:37:04.497Z,24.44
2016-09-11T05:37:30.063Z,24.45
2016-09-11T05:37:55.695Z,24.38
2016-09-11T05:38:21.832Z,24.32
2016-09-11T05:38:47.379Z,24.39
2016-09-11T05:39:13.635Z,24.37
2016-09-11T05:39:39.217Z,24.35
2016-09-11T05:40:04.804Z,24.39
2016-09-11T05:40:31.176Z,24.39
2016-09-11T05:40:56.732Z,24.32
2016-09-11T05:41:22.804Z,24.37
2016-09-11T05:41:48.404Z,24.41
2016-09-11T05:42:14.576Z,24.35
2016-09-11T05:42:40.138Z,24.37
2016-09-11T05:43:05.706Z,24.32
2016-09-11T05:43:31.920Z,24.34
2016-09-11T05:43:57.489Z,24.34
2016-09-11T05:44:23.795Z,24.35
2016-09-11T05:44:49.363Z,24.35
2016-09-11T05:45:14.927Z,24.35
2016-09-11T05:45:41.076Z,24.38
2016-09-11T05:46:06.648Z,24.38
2016-09-11T05:46:32.875Z,24.38
2016-09-11T05:46:58.437Z,24.27
2016-09-11T05:47:24.668Z,24.32
2016-09-11T05:47:50.246Z,24.35
2016-09-11T05:48:15.822Z,24.34
2016-09-11T05:48:42.019Z,24.34
2016-09-11T05:49:07.586Z,24.32
2016-09-11T05:49:33.830Z,24.35
2016-09-11T05:49:59.397Z,24.41
2016-09-11T05:50:24.966Z,24.41
2016-09-11T05:50:51.224Z,24.31
2016-09-11T05:51:16.796Z,24.38
2016-09-11T05:51:42.944Z,24.38
2016-09-11T05:52:08.625Z,24.35
2016-09-11T05:52:34.787Z,24.42
2016-09-11T05:53:00.356Z,24.35
2016-09-11T05:53:25.967Z,24.31
2016-09-11T05:53:52.109Z,24.29
2016-09-11T05:54:17.660Z,24.34
2016-09-11T05:54:43.928Z,24.34
2016-09-11T05:55:09.494Z,24.38
2016-09-11T05:55:35.069Z,24.34
2016-09-11T05:56:01.300Z,24.27
2016-09-11T05:56:26.867Z,24.31
2016-09-11T05:56:53.069Z,24.39
2016-09-11T05:57:18.625Z,24.37
2016-09-11T05:57:44.856Z,24.35
2016-09-11T05:58:10.439Z,24.34
2016-09-11T05:58:36.037Z,24.29
2016-09-11T05:59:02.198Z,24.38
2016-09-11T05:59:27.750Z,24.34
2016-09-11T05:59:53.997Z,24.42
2016-09-11T06:00:19.553Z,24.5
2016-09-11T06:01:07.429Z,24.32
2016-09-11T06:01:32.988Z,24.49
2016-09-11T06:01:58.999Z,24.34
2016-09-11T06:02:24.639Z,24.45
2016-09-11T06:02:50.211Z,24.39
2016-09-11T06:03:15.768Z,24.35
2016-09-11T06:03:41.319Z,24.35
2016-09-11T06:04:06.907Z,24.37
2016-09-11T06:04:32.463Z,24.5
2016-09-11T06:04:58.157Z,24.35
2016-09-11T06:05:23.836Z,24.39
2016-09-11T06:05:49.394Z,24.37
2016-09-11T06:06:14.967Z,24.32
2016-09-11T06:06:40.535Z,24.29
2016-09-11T06:07:06.276Z,24.32
2016-09-11T06:07:31.867Z,24.37
2016-09-11T06:07:57.416Z,24.38
2016-09-11T06:08:23.169Z,24.22
2016-09-11T06:08:48.881Z,24.27
2016-09-11T06:09:14.438Z,24.31
2016-09-11T06:09:40.028Z,24.32
2016-09-11T06:10:05.688Z,24.26
2016-09-11T06:10:31.252Z,24.31
2016-09-11T06:10:56.814Z,24.29
2016-09-11T06:11:22.422Z,24.35
2016-09-11T06:11:48.132Z,24.26
2016-09-11T06:12:13.979Z,24.29
2016-09-11T06:12:39.859Z,24.27
2016-09-11T06:13:06.263Z,24.38
2016-09-11T06:13:31.927Z,24.31
2016-09-11T06:13:58.157Z,24.27
2016-09-11T06:14:23.798Z,24.35
2016-09-11T06:14:49.676Z,24.41
2016-09-11T06:15:15.321Z,24.32
2016-09-11T06:15:40.923Z,24.29
2016-09-11T06:16:06.694Z,24.37
2016-09-11T06:16:32.228Z,24.34
2016-09-11T06:16:57.811Z,24.37
2016-09-11T06:17:23.532Z,24.38
2016-09-11T06:17:49.155Z,24.38
2016-09-11T06:18:15.600Z,24.37
2016-09-11T06:18:41.151Z,24.35
2016-09-11T06:19:06.897Z,24.32
2016-09-11T06:19:32.565Z,24.47
2016-09-11T06:19:58.158Z,24.34
2016-09-11T06:20:24.015Z,24.34
2016-09-11T06:20:49.654Z,24.35
2016-09-11T06:21:15.212Z,24.45
2016-09-11T06:21:40.768Z,24.42
2016-09-11T06:22:06.310Z,24.35
2016-09-11T06:22:31.858Z,24.35
2016-09-11T06:22:58.045Z,24.29
2016-09-11T06:23:23.808Z,24.38
2016-09-11T06:23:49.408Z,24.32
2016-09-11T06:24:15.118Z,24.37
2016-09-11T06:24:40.808Z,24.41
2016-09-11T06:25:08.245Z,24.35
2016-09-11T06:25:33.808Z,24.38
2016-09-11T06:25:59.534Z,24.34
2016-09-11T06:26:25.197Z,24.34
2016-09-11T06:26:50.761Z,24.34
2016-09-11T06:27:16.336Z,24.35
2016-09-11T06:27:41.932Z,24.37
2016-09-11T06:28:07.803Z,24.34
2016-09-11T06:28:33.363Z,24.32
2016-09-11T06:28:59.088Z,24.39
2016-09-11T06:29:24.660Z,24.26
2016-09-11T06:29:55.259Z,24.42
2016-09-11T06:30:21.537Z,24.41
2016-09-11T06:30:47.096Z,24.34
2016-09-11T06:31:12.799Z,24.38
2016-09-11T06:31:38.750Z,24.27
2016-09-11T06:32:04.771Z,24.24
2016-09-11T06:32:30.624Z,24.32
2016-09-11T06:32:56.124Z,24.37
2016-09-11T06:33:21.715Z,24.35
2016-09-11T06:33:48.262Z,24.34
2016-09-11T06:34:13.897Z,24.35
2016-09-11T06:34:39.705Z,24.31
2016-09-11T06:35:05.294Z,24.37
2016-09-11T06:35:31.031Z,24.32
2016-09-11T06:35:57.067Z,24.35
2016-09-11T06:36:22.630Z,24.27
2016-09-11T06:36:48.867Z,24.35
2016-09-11T06:37:14.587Z,24.32
2016-09-11T06:37:40.154Z,24.34
2016-09-11T06:38:06.276Z,24.39
2016-09-11T06:38:32.234Z,24.35
2016-09-11T06:38:58.139Z,24.37
2016-09-11T06:39:23.785Z,24.44
2016-09-11T06:39:49.304Z,24.34
2016-09-11T06:40:15.717Z,24.39
2016-09-11T06:40:41.357Z,24.38
2016-09-11T06:41:07.321Z,24.34
2016-09-11T06:41:32.902Z,24.29
2016-09-11T06:41:59.401Z,24.38
2016-09-11T06:42:25.046Z,24.23
2016-09-11T06:42:50.604Z,24.23
2016-09-11T06:43:16.870Z,24.27
2016-09-11T06:43:42.440Z,24.34
2016-09-11T06:44:08.247Z,24.31
2016-09-11T06:44:33.895Z,24.24
2016-09-11T06:44:59.447Z,24.26
2016-09-11T06:45:25.614Z,24.2
2016-09-11T06:45:51.256Z,24.27
2016-09-11T06:46:17.276Z,24.19
2016-09-11T06:46:42.827Z,24.14
2016-09-11T06:47:09.146Z,24.22
2016-09-11T06:47:34.698Z,24.17
2016-09-11T06:48:00.513Z,24.17
2016-09-11T06:48:26.512Z,24.16
2016-09-11T06:48:52.105Z,24.17
2016-09-11T06:49:18.362Z,24.17
2016-09-11T06:49:44.019Z,24.14
2016-09-11T06:50:10.228Z,24.14
2016-09-11T06:50:35.856Z,24.07
2016-09-11T06:51:01.670Z,24.01
2016-09-11T06:51:27.505Z,24.05
2016-09-11T06:51:53.065Z,24.07
2016-09-11T06:52:19.247Z,24.08
2016-09-11T06:52:44.873Z,24.12
2016-09-11T06:53:11.104Z,24.13
2016-09-11T06:53:36.927Z,24.08
2016-09-11T06:54:02.551Z,24.04
2016-09-11T06:54:28.377Z,24.12
2016-09-11T06:54:53.969Z,24.14
2016-09-11T06:55:19.653Z,24
2016-09-11T06:55:45.830Z,24.07
2016-09-11T06:56:11.474Z,24.13
2016-09-11T06:56:37.487Z,24.04
2016-09-11T06:57:03.039Z,23.95
2016-09-11T06:57:29.308Z,24.05
2016-09-11T06:57:54.926Z,23.97
2016-09-11T06:58:20.621Z,23.97
2016-09-11T06:58:46.712Z,23.95
2016-09-11T06:59:12.429Z,23.86
2016-09-11T06:59:38.430Z,23.85
2016-09-11T07:00:04.112Z,23.76
2016-09-11T07:00:29.643Z,23.79
2016-09-11T07:00:55.982Z,23.79
2016-09-11T07:01:21.566Z,23.77
2016-09-11T07:02:14.823Z,23.8
2016-09-11T07:02:40.468Z,23.75
2016-09-11T07:03:06.149Z,23.86
2016-09-11T07:03:31.954Z,23.9
2016-09-11T07:03:57.662Z,23.82
2016-09-11T07:04:23.298Z,23.83
2016-09-11T07:04:49.068Z,23.87
2016-09-11T07:05:14.667Z,23.89
2016-09-11T07:05:40.244Z,23.92
2016-09-11T07:06:06.119Z,23.86
2016-09-11T07:06:31.651Z,23.97
2016-09-11T07:06:57.207Z,24.02
2016-09-11T07:07:22.871Z,24.01
2016-09-11T07:07:48.451Z,24.02
2016-09-11T07:08:14.027Z,23.98
2016-09-11T07:08:39.701Z,23.97
2016-09-11T07:09:05.288Z,23.95
2016-09-11T07:09:30.916Z,23.86
2016-09-11T07:09:56.503Z,23.79
2016-09-11T07:10:22.406Z,23.77
2016-09-11T07:10:47.963Z,23.77
2016-09-11T07:11:13.551Z,23.68
2016-09-11T07:11:39.192Z,23.72
2016-09-11T07:12:05.042Z,23.71
2016-09-11T07:12:30.794Z,23.71
2016-09-11T07:12:56.358Z,23.7
2016-09-11T07:13:21.953Z,23.7
2016-09-11T07:13:47.628Z,23.58
2016-09-11T07:14:13.217Z,23.65
2016-09-11T07:14:39.102Z,23.65
2016-09-11T07:15:04.690Z,23.61
2016-09-11T07:15:30.313Z,23.68
2016-09-11T07:15:55.881Z,23.7
2016-09-11T07:16:21.481Z,23.65
2016-09-11T07:16:47.106Z,23.72
2016-09-11T07:17:12.784Z,23.6
2016-09-11T07:17:38.376Z,23.53
2016-09-11T07:18:03.954Z,23.65
2016-09-11T07:18:29.529Z,23.6
2016-09-11T07:18:55.105Z,23.62
2016-09-11T07:19:20.786Z,23.64
2016-09-11T07:19:46.503Z,23.62
2016-09-11T07:20:12.101Z,23.61
2016-09-11T07:20:37.710Z,23.68
2016-09-11T07:21:03.283Z,23.68
2016-09-11T07:22:06.570Z,23.57
2016-09-11T07:22:32.157Z,23.52
2016-09-11T07:22:57.948Z,23.49
2016-09-11T07:23:23.504Z,23.57
2016-09-11T07:23:49.106Z,23.5
2016-09-11T07:24:14.702Z,23.64
2016-09-11T07:24:40.334Z,23.61
2016-09-11T07:25:05.984Z,23.62
2016-09-11T07:25:31.530Z,23.61
2016-09-11T07:25:57.126Z,23.62
2016-09-11T07:26:22.713Z,23.64
2016-09-11T07:26:48.341Z,23.64
2016-09-11T07:27:13.888Z,23.65
2016-09-11T07:27:39.522Z,23.6
2016-09-11T07:28:05.221Z,23.7
2016-09-11T07:28:30.840Z,23.5
2016-09-11T07:28:56.384Z,23.53
2016-09-11T07:29:22.510Z,23.52
2016-09-11T07:29:48.031Z,23.62
2016-09-11T07:30:14.119Z,23.65
2016-09-11T07:30:39.708Z,23.65
2016-09-11T07:31:05.297Z,23.64
2016-09-11T07:31:30.879Z,23.68
2016-09-11T07:31:56.560Z,23.71
2016-09-11T07:32:22.586Z,23.86
2016-09-11T07:32:48.193Z,23.76
2016-09-11T07:33:13.852Z,23.89
2016-09-11T07:33:39.387Z,23.83
2016-09-11T07:34:05.149Z,23.92
2016-09-11T07:34:30.732Z,23.92
2016-09-11T07:34:56.288Z,24.01
2016-09-11T07:35:24.346Z,24.01
2016-09-11T07:35:49.881Z,23.97
2016-09-11T07:36:15.754Z,23.94
2016-09-11T07:36:41.288Z,23.89
2016-09-11T07:37:06.875Z,23.9
2016-09-11T07:37:32.540Z,23.9
2016-09-11T07:37:58.296Z,23.89
2016-09-11T07:38:25.454Z,23.89
2016-09-11T07:38:51.077Z,23.98
2016-09-11T07:39:16.616Z,23.87
2016-09-11T07:39:42.211Z,23.97
2016-09-11T07:40:07.988Z,23.83
2016-09-11T07:40:33.585Z,23.89
2016-09-11T07:40:59.227Z,23.9
2016-09-11T07:41:24.872Z,23.95
2016-09-11T07:41:50.527Z,23.95
2016-09-11T07:42:16.205Z,24.01
2016-09-11T07:42:41.750Z,23.89
2016-09-11T07:43:07.349Z,23.89
2016-09-11T07:43:32.979Z,23.87
2016-09-11T07:43:58.822Z,23.95
2016-09-11T07:44:24.368Z,23.87
2016-09-11T07:44:49.916Z,23.95
2016-09-11T07:45:15.795Z,23.97
2016-09-11T07:45:41.380Z,23.92
2016-09-11T07:46:07.033Z,23.85
2016-09-11T07:46:32.609Z,23.85
2016-09-11T07:46:58.264Z,23.95
2016-09-11T07:47:23.889Z,23.92
2016-09-11T07:47:49.626Z,23.92
2016-09-11T07:48:15.205Z,24
2016-09-11T07:48:40.781Z,24.04
2016-09-11T07:49:06.396Z,23.97
2016-09-11T07:49:31.957Z,23.98
2016-09-11T07:49:57.531Z,24.01
2016-09-11T07:50:23.269Z,23.92
2016-09-11T07:50:48.824Z,23.94
2016-09-11T07:51:14.398Z,23.94
2016-09-11T07:51:39.953Z,23.92
2016-09-11T07:52:05.517Z,23.92
2016-09-11T07:52:31.241Z,23.95
2016-09-11T07:52:56.802Z,23.95
2016-09-11T07:53:22.538Z,23.94
2016-09-11T07:53:48.369Z,23.97
2016-09-11T07:54:14.232Z,23.92
2016-09-11T07:54:39.923Z,23.95
2016-09-11T07:55:05.694Z,23.94
2016-09-11T07:55:31.563Z,23.98
2016-09-11T07:55:57.349Z,23.98
2016-09-11T07:56:23.775Z,23.92
2016-09-11T07:56:49.908Z,24.07
2016-09-11T07:57:16.060Z,24.08
2016-09-11T07:57:41.934Z,24.02
2016-09-11T07:58:07.924Z,24.13
2016-09-11T07:58:34.226Z,24.1
2016-09-11T07:59:00.134Z,24.08
2016-09-11T07:59:25.766Z,24.12
2016-09-11T07:59:51.691Z,24.08
2016-09-11T08:00:17.344Z,24.1
2016-09-11T08:00:42.923Z,24.1
2016-09-11T08:01:08.559Z,24.07
2016-09-11T08:01:34.280Z,24.13
2016-09-11T08:01:59.774Z,24.07
2016-09-11T08:02:25.481Z,24.07
2016-09-11T08:02:51.100Z,24.14
2016-09-11T08:03:16.751Z,24.07
2016-09-11T08:03:42.374Z,24.16
2016-09-11T08:04:08.127Z,24.14
2016-09-11T08:04:33.790Z,24.16
2016-09-11T08:04:59.500Z,24.13
2016-09-11T08:05:25.003Z,24.19
2016-09-11T08:05:50.867Z,24.2
2016-09-11T08:06:16.418Z,24.31
2016-09-11T08:06:42.232Z,24.19
2016-09-11T08:07:08.097Z,24.24
2016-09-11T08:07:33.705Z,24.19
2016-09-11T08:07:59.279Z,24.29
2016-09-11T08:08:24.891Z,24.19
2016-09-11T08:08:50.445Z,24.16
2016-09-11T08:09:16.014Z,24.16
2016-09-11T08:09:41.727Z,24.17
2016-09-11T08:10:07.472Z,24.16
2016-09-11T08:10:33.027Z,24.22
2016-09-11T08:10:58.718Z,24.22
2016-09-11T08:11:24.433Z,24.22
2016-09-11T08:11:50.297Z,24.26
2016-09-11T08:12:15.683Z,24.24
2016-09-11T08:12:41.272Z,24.38
2016-09-11T08:13:07.259Z,24.35
2016-09-11T08:13:32.904Z,24.37
2016-09-11T08:13:58.747Z,24.37
2016-09-11T08:14:24.103Z,24.34
2016-09-11T08:14:49.694Z,24.63
2016-09-11T08:15:15.293Z,24.77
2016-09-11T08:15:40.940Z,24.64
2016-09-11T08:16:06.497Z,24.5
2016-09-11T08:16:32.130Z,24.57
2016-09-11T08:16:57.826Z,24.59
2016-09-11T08:17:55.931Z,24.39
2016-09-11T08:18:21.502Z,24.34
2016-09-11T08:18:47.177Z,24.34
2016-09-11T08:19:12.822Z,24.35
2016-09-11T08:19:38.425Z,24.31
2016-09-11T08:20:04.379Z,24.38
2016-09-11T08:20:29.935Z,24.39
2016-09-11T08:20:55.887Z,24.52
2016-09-11T08:21:21.471Z,24.52
2016-09-11T08:21:47.178Z,24.64
2016-09-11T08:22:13.411Z,24.87
2016-09-11T08:22:38.984Z,24.85
2016-09-11T08:23:05.040Z,24.82
2016-09-11T08:23:30.664Z,24.9
2016-09-11T08:23:56.856Z,24.82
2016-09-11T08:24:22.508Z,24.8
2016-09-11T08:24:48.097Z,24.85
2016-09-11T08:25:14.226Z,24.88
2016-09-11T08:25:39.755Z,24.82
2016-09-11T08:26:06.075Z,24.87
2016-09-11T08:26:31.624Z,24.77
2016-09-11T08:26:57.220Z,24.75
2016-09-11T08:27:23.536Z,24.82
2016-09-11T08:27:49.246Z,24.82
2016-09-11T08:28:15.187Z,24.75
2016-09-11T08:28:40.723Z,24.67
2016-09-11T08:29:06.987Z,24.71
2016-09-11T08:29:32.559Z,24.63
2016-09-11T08:29:58.138Z,24.69
2016-09-11T08:30:24.385Z,24.61
2016-09-11T08:30:49.959Z,24.67
2016-09-11T08:31:16.071Z,24.56
2016-09-11T08:32:46.745Z,24.54
2016-09-11T08:33:12.457Z,24.47
2016-09-11T08:33:38.102Z,24.44
2016-09-11T08:34:03.745Z,24.38
2016-09-11T08:34:29.322Z,24.34
2016-09-11T08:34:54.895Z,24.23
2016-09-11T08:35:53.332Z,24.1
2016-09-11T08:36:41.236Z,24.07
2016-09-11T08:37:06.798Z,24.16
2016-09-11T08:37:32.361Z,24.19
2016-09-11T08:37:57.986Z,24.2
2016-09-11T08:38:23.597Z,24.19
2016-09-11T08:38:49.160Z,24.13
2016-09-11T08:39:14.763Z,24.2
2016-09-11T08:39:40.357Z,24.23
2016-09-11T08:40:05.926Z,24.2
2016-09-11T08:40:31.469Z,24.31
2016-09-11T08:40:57.225Z,24.22
2016-09-11T08:41:22.792Z,24.26
2016-09-11T08:41:48.434Z,24.2
2016-09-11T08:42:13.985Z,24.24
2016-09-11T08:42:39.541Z,24.22
2016-09-11T08:43:05.337Z,24.2
2016-09-11T08:43:30.918Z,24.13
2016-09-11T08:43:57.038Z,24.2
2016-09-11T08:44:22.613Z,24.2
2016-09-11T08:44:48.194Z,24.26
2016-09-11T08:45:13.771Z,24.2
2016-09-11T08:45:39.321Z,24.27
2016-09-11T08:46:04.864Z,24.27
2016-09-11T08:46:30.604Z,24.27
2016-09-11T08:46:56.186Z,24.22
2016-09-11T08:47:21.738Z,24.31
2016-09-11T08:47:47.603Z,24.23
2016-09-11T08:48:13.287Z,24.26
2016-09-11T08:48:38.840Z,24.29
2016-09-11T08:49:04.384Z,24.31
2016-09-11T08:49:30.005Z,24.31
2016-09-11T08:50:33.266Z,24.39
2016-09-11T08:50:58.826Z,24.38
2016-09-11T08:51:24.476Z,24.34
2016-09-11T08:51:50.026Z,24.35
2016-09-11T08:52:15.739Z,24.22
2016-09-11T08:52:41.317Z,24.2
2016-09-11T08:53:06.963Z,24.23
2016-09-11T08:53:32.544Z,24.35
2016-09-11T08:53:58.128Z,24.32
2016-09-11T08:54:23.735Z,24.38
2016-09-11T08:54:49.306Z,24.34
2016-09-11T08:55:14.858Z,24.35
2016-09-11T08:55:40.495Z,24.39
2016-09-11T08:56:06.069Z,24.32
2016-09-11T08:56:31.746Z,24.37
2016-09-11T08:56:57.650Z,24.38
2016-09-11T08:57:23.989Z,24.35
2016-09-11T08:57:48.940Z,24.5
2016-09-11T08:58:14.824Z,24.32
2016-09-11T08:58:40.399Z,24.34
2016-09-11T08:59:05.947Z,24.38
2016-09-11T08:59:31.524Z,24.35
2016-09-11T08:59:57.092Z,24.32
2016-09-11T09:00:22.827Z,24.32
2016-09-11T09:00:48.517Z,24.29
2016-09-11T09:01:14.156Z,24.26
2016-09-11T09:01:39.779Z,24.32
2016-09-11T09:02:05.360Z,24.32
2016-09-11T09:02:31.016Z,24.35
2016-09-11T09:02:56.609Z,24.34
2016-09-11T09:03:22.196Z,24.34
2016-09-11T09:03:47.919Z,24.23
2016-09-11T09:04:13.867Z,24.41
2016-09-11T09:04:39.593Z,24.35
2016-09-11T09:05:05.152Z,24.45
2016-09-11T09:05:31.044Z,24.49
2016-09-11T09:05:56.711Z,24.44
2016-09-11T09:06:22.301Z,24.41
2016-09-11T09:06:48.055Z,24.32
2016-09-11T09:07:13.717Z,24.49
2016-09-11T09:07:39.622Z,24.45
2016-09-11T09:08:05.235Z,24.54
2016-09-11T09:08:30.874Z,24.45
2016-09-11T09:08:56.485Z,24.45
2016-09-11T09:09:22.166Z,24.42
2016-09-11T09:09:47.794Z,24.42
2016-09-11T09:10:13.377Z,24.37
2016-09-11T09:10:38.967Z,24.49
2016-09-11T09:11:04.651Z,24.35
2016-09-11T09:11:30.270Z,24.35
2016-09-11T09:11:55.886Z,24.34
2016-09-11T09:12:21.958Z,24.32
2016-09-11T09:12:47.514Z,24.44
2016-09-11T09:14:29.058Z,24.38
2016-09-11T09:14:54.608Z,24.37
2016-09-11T09:15:20.185Z,24.38
2016-09-11T09:15:45.748Z,24.39
2016-09-11T09:16:11.529Z,24.39
2016-09-11T09:17:09.724Z,24.34
2016-09-11T09:17:35.355Z,24.34
2016-09-11T09:18:01.348Z,24.54
2016-09-11T09:18:26.926Z,24.45
2016-09-11T09:18:52.965Z,24.44
2016-09-11T09:19:19.136Z,24.45
2016-09-11T09:19:44.689Z,24.31
2016-09-11T09:20:10.306Z,24.39
2016-09-11T09:20:35.863Z,24.45
2016-09-11T09:21:01.443Z,24.38
2016-09-11T09:21:27.149Z,24.35
2016-09-11T09:21:52.866Z,24.37
2016-09-11T09:22:18.487Z,24.39
2016-09-11T09:22:44.182Z,24.32
2016-09-11T09:23:09.746Z,24.47
2016-09-11T09:23:35.343Z,24.39
2016-09-11T09:24:01.017Z,24.5
2016-09-11T09:24:26.567Z,24.49
2016-09-11T09:24:52.254Z,24.49
2016-09-11T09:25:17.879Z,24.49
2016-09-11T09:25:43.717Z,24.47
2016-09-11T09:26:09.970Z,24.37
2016-09-11T09:26:35.504Z,24.38
2016-09-11T09:27:01.182Z,24.34
2016-09-11T09:27:26.751Z,24.41
2016-09-11T09:27:52.408Z,24.47
2016-09-11T09:28:18.015Z,24.38
2016-09-11T09:28:43.666Z,24.34
2016-09-11T09:29:09.238Z,24.34
2016-09-11T09:29:34.856Z,24.42
2016-09-11T09:30:00.544Z,24.49
2016-09-11T09:30:26.131Z,24.57
2016-09-11T09:30:51.707Z,24.34
2016-09-11T09:31:17.336Z,24.39
2016-09-11T09:31:43.004Z,24.31
2016-09-11T09:32:08.542Z,24.2
2016-09-11T09:32:34.259Z,24.26
2016-09-11T09:32:59.839Z,24.34
2016-09-11T09:33:25.578Z,24.26
2016-09-11T09:33:51.227Z,24.24
2016-09-11T09:34:17.165Z,24.37
2016-09-11T09:34:43.005Z,24.39
2016-09-11T09:35:08.826Z,24.35
2016-09-11T09:35:34.503Z,24.44
2016-09-11T09:36:00.126Z,24.5
2016-09-11T09:36:25.718Z,24.52
2016-09-11T09:36:51.367Z,24.49
2016-09-11T09:37:17.192Z,24.56
2016-09-11T09:37:42.871Z,24.5
2016-09-11T09:38:08.542Z,24.57
2016-09-11T09:38:34.230Z,24.53
2016-09-11T09:38:59.896Z,24.64
2016-09-11T09:39:25.637Z,24.61
2016-09-11T09:39:51.385Z,24.67